sensor_id;sensor_type;location;lat;lon;timestamp;pressure;altitude;pressure_sealevel;temperature;humidity
64115;BME280;62188;35.640;139.748;2022-09-09T00:02:30;101433.71;;;28.88;46.60
64115;BME280;62188;35.640;139.748;2022-09-09T00:05:00;101434.03;;;28.82;46.52
64115;BME280;62188;35.640;139.748;2022-09-09T00:07:24;101432.21;;;28.66;46.80
64115;BME280;62188;35.640;139.748;2022-09-09T00:09:48;101429.89;;;28.87;46.93
64115;BME280;62188;35.640;139.748;2022-09-09T00:12:15;101428.04;;;28.71;46.91
64115;BME280;62188;35.640;139.748;2022-09-09T00:14:42;101424.87;;;28.78;46.93
64115;BME280;62188;35.640;139.748;2022-09-09T00:17:04;101423.75;;;28.71;46.76
64115;BME280;62188;35.640;139.748;2022-09-09T00:19:32;101428.30;;;28.68;46.92
64115;BME280;62188;35.640;139.748;2022-09-09T00:22:02;101432.58;;;28.88;46.82
64115;BME280;62188;35.640;139.748;2022-09-09T00:24:23;101436.85;;;29.09;46.99
64115;BME280;62188;35.640;139.748;2022-09-09T00:26:47;101436.31;;;28.54;46.77
64115;BME280;62188;35.640;139.748;2022-09-09T00:29:19;101435.01;;;28.56;46.90
64115;BME280;62188;35.640;139.748;2022-09-09T00:31:34;101437.31;;;28.60;46.55
64115;BME280;62188;35.640;139.748;2022-09-09T00:34:03;101439.75;;;28.62;46.51
64115;BME280;62188;35.640;139.748;2022-09-09T00:36:35;101443.43;;;28.84;46.44
64115;BME280;62188;35.640;139.748;2022-09-09T00:38:54;101445.51;;;28.72;46.41
64115;BME280;62188;35.640;139.748;2022-09-09T00:41:21;101447.54;;;28.41;46.59
64115;BME280;62188;35.640;139.748;2022-09-09T00:43:41;101447.93;;;28.34;46.58
64115;BME280;62188;35.640;139.748;2022-09-09T00:48:37;101453.35;;;28.39;46.91
64115;BME280;62188;35.640;139.748;2022-09-09T00:51:00;101456.98;;;28.39;46.77
64115;BME280;62188;35.640;139.748;2022-09-09T00:53:31;101455.84;;;28.34;46.78
64115;BME280;62188;35.640;139.748;2022-09-09T00:55:51;101454.94;;;28.31;46.79
64115;BME280;62188;35.640;139.748;2022-09-09T00:58:13;101454.61;;;28.68;47.02
64115;BME280;62188;35.640;139.748;2022-09-09T01:00:42;101457.84;;;28.22;47.03
64115;BME280;62188;35.640;139.748;2022-09-09T01:03:14;101457.53;;;28.50;46.97
64115;BME280;62188;35.640;139.748;2022-09-09T01:05:34;101459.49;;;28.30;46.98
64115;BME280;62188;35.640;139.748;2022-09-09T01:07:53;101460.07;;;28.27;47.18
64115;BME280;62188;35.640;139.748;2022-09-09T01:10:26;101463.09;;;28.51;47.06
64115;BME280;62188;35.640;139.748;2022-09-09T01:12:45;101463.83;;;28.48;47.11
64115;BME280;62188;35.640;139.748;2022-09-09T01:15:12;101462.01;;;28.18;47.32
64115;BME280;62188;35.640;139.748;2022-09-09T01:17:38;101465.36;;;28.48;47.27
64115;BME280;62188;35.640;139.748;2022-09-09T01:20:06;101462.82;;;28.31;47.33
64115;BME280;62188;35.640;139.748;2022-09-09T01:22:34;101464.05;;;28.32;47.34
64115;BME280;62188;35.640;139.748;2022-09-09T01:27:16;101466.09;;;28.29;47.61
64115;BME280;62188;35.640;139.748;2022-09-09T01:29:40;101471.30;;;28.25;47.55
64115;BME280;62188;35.640;139.748;2022-09-09T01:34:35;101469.39;;;28.19;47.98
64115;BME280;62188;35.640;139.748;2022-09-09T01:37:01;101466.79;;;28.11;48.22
64115;BME280;62188;35.640;139.748;2022-09-09T01:39:22;101470.44;;;28.17;48.27
64115;BME280;62188;35.640;139.748;2022-09-09T01:41:47;101471.15;;;28.63;48.65
64115;BME280;62188;35.640;139.748;2022-09-09T01:44:13;101471.84;;;28.45;48.71
64115;BME280;62188;35.640;139.748;2022-09-09T01:46:38;101473.19;;;28.48;48.51
64115;BME280;62188;35.640;139.748;2022-09-09T01:49:06;101469.43;;;28.25;48.55
64115;BME280;62188;35.640;139.748;2022-09-09T01:51:29;101471.92;;;28.66;48.79
64115;BME280;62188;35.640;139.748;2022-09-09T01:53:54;101471.29;;;28.05;48.76
64115;BME280;62188;35.640;139.748;2022-09-09T01:56:30;101472.50;;;27.95;49.03
64115;BME280;62188;35.640;139.748;2022-09-09T01:58:55;101471.86;;;27.93;49.39
64115;BME280;62188;35.640;139.748;2022-09-09T02:01:17;101470.29;;;27.89;49.68
64115;BME280;62188;35.640;139.748;2022-09-09T02:03:36;101466.08;;;28.16;49.82
64115;BME280;62188;35.640;139.748;2022-09-09T02:06:08;101465.11;;;27.92;49.90
64115;BME280;62188;35.640;139.748;2022-09-09T02:08:31;101468.93;;;27.91;49.74
64115;BME280;62188;35.640;139.748;2022-09-09T02:10:55;101467.82;;;28.21;49.97
64115;BME280;62188;35.640;139.748;2022-09-09T02:13:19;101467.95;;;28.05;49.95
64115;BME280;62188;35.640;139.748;2022-09-09T02:15:47;101462.62;;;28.05;49.95
64115;BME280;62188;35.640;139.748;2022-09-09T02:18:08;101457.54;;;28.18;49.90
64115;BME280;62188;35.640;139.748;2022-09-09T02:20:33;101457.68;;;28.77;49.62
64115;BME280;62188;35.640;139.748;2022-09-09T02:22:59;101459.51;;;28.51;49.45
64115;BME280;62188;35.640;139.748;2022-09-09T02:25:26;101457.38;;;28.73;49.24
64115;BME280;62188;35.640;139.748;2022-09-09T02:27:51;101455.57;;;29.09;48.78
64115;BME280;62188;35.640;139.748;2022-09-09T02:30:15;101454.74;;;29.27;48.17
64115;BME280;62188;35.640;139.748;2022-09-09T02:32:41;101450.64;;;29.44;48.12
64115;BME280;62188;35.640;139.748;2022-09-09T02:35:09;101449.31;;;29.41;47.76
64115;BME280;62188;35.640;139.748;2022-09-09T02:37:34;101445.36;;;29.57;47.09
64115;BME280;62188;35.640;139.748;2022-09-09T02:39:55;101442.18;;;29.55;47.01
64115;BME280;62188;35.640;139.748;2022-09-09T02:42:22;101436.46;;;29.47;46.91
64115;BME280;62188;35.640;139.748;2022-09-09T02:44:46;101434.15;;;29.91;46.42
64115;BME280;62188;35.640;139.748;2022-09-09T02:47:24;101430.62;;;29.94;45.84
64115;BME280;62188;35.640;139.748;2022-09-09T02:49:44;101428.29;;;29.77;45.39
64115;BME280;62188;35.640;139.748;2022-09-09T02:52:07;101425.37;;;30.07;45.28
64115;BME280;62188;35.640;139.748;2022-09-09T02:54:30;101419.87;;;30.21;45.02
64115;BME280;62188;35.640;139.748;2022-09-09T02:56:54;101414.47;;;30.33;44.77
64115;BME280;62188;35.640;139.748;2022-09-09T02:59:18;101409.23;;;30.12;44.53
64115;BME280;62188;35.640;139.748;2022-09-09T03:01:43;101407.04;;;30.72;44.15
64115;BME280;62188;35.640;139.748;2022-09-09T03:04:09;101408.07;;;30.44;43.92
64115;BME280;62188;35.640;139.748;2022-09-09T03:06:35;101403.06;;;30.68;43.58
64115;BME280;62188;35.640;139.748;2022-09-09T03:08:59;101401.07;;;30.87;43.55
64115;BME280;62188;35.640;139.748;2022-09-09T03:11:24;101394.63;;;30.67;43.17
64115;BME280;62188;35.640;139.748;2022-09-09T03:13:50;101389.01;;;30.36;43.52
64115;BME280;62188;35.640;139.748;2022-09-09T03:16:15;101378.92;;;30.34;43.87
64115;BME280;62188;35.640;139.748;2022-09-09T03:18:40;101368.74;;;30.73;43.92
64115;BME280;62188;35.640;139.748;2022-09-09T03:21:06;101363.87;;;30.80;44.00
64115;BME280;62188;35.640;139.748;2022-09-09T03:23:31;101359.92;;;30.41;43.85
64115;BME280;62188;35.640;139.748;2022-09-09T03:25:56;101360.22;;;30.59;43.83
64115;BME280;62188;35.640;139.748;2022-09-09T03:28:21;101356.33;;;30.19;43.83
64115;BME280;62188;35.640;139.748;2022-09-09T03:30:47;101351.75;;;30.59;43.78
64115;BME280;62188;35.640;139.748;2022-09-09T03:33:12;101353.50;;;31.03;43.57
64115;BME280;62188;35.640;139.748;2022-09-09T03:35:38;101351.79;;;30.83;43.44
64115;BME280;62188;35.640;139.748;2022-09-09T03:38:03;101346.31;;;31.09;42.50
64115;BME280;62188;35.640;139.748;2022-09-09T03:40:28;101342.61;;;31.26;42.61
64115;BME280;62188;35.640;139.748;2022-09-09T03:42:54;101341.18;;;31.15;42.48
64115;BME280;62188;35.640;139.748;2022-09-09T03:45:19;101338.63;;;30.92;42.74
64115;BME280;62188;35.640;139.748;2022-09-09T03:47:44;101335.35;;;30.76;42.44
64115;BME280;62188;35.640;139.748;2022-09-09T03:50:10;101331.71;;;30.81;42.83
64115;BME280;62188;35.640;139.748;2022-09-09T03:52:36;101322.60;;;31.10;42.60
64115;BME280;62188;35.640;139.748;2022-09-09T03:55:00;101322.79;;;30.76;42.70
64115;BME280;62188;35.640;139.748;2022-09-09T03:57:25;101320.23;;;31.31;42.58
64115;BME280;62188;35.640;139.748;2022-09-09T03:59:50;101317.16;;;31.32;42.19
64115;BME280;62188;35.640;139.748;2022-09-09T04:02:15;101314.97;;;31.35;41.93
64115;BME280;62188;35.640;139.748;2022-09-09T04:04:41;101316.14;;;31.74;41.57
64115;BME280;62188;35.640;139.748;2022-09-09T04:07:06;101315.77;;;31.70;41.33
64115;BME280;62188;35.640;139.748;2022-09-09T04:09:32;101315.34;;;31.79;41.42
64115;BME280;62188;35.640;139.748;2022-09-09T04:11:57;101312.30;;;31.48;40.92
64115;BME280;62188;35.640;139.748;2022-09-09T04:14:23;101309.10;;;31.12;41.40
64115;BME280;62188;35.640;139.748;2022-09-09T04:16:48;101306.14;;;31.35;41.61
64115;BME280;62188;35.640;139.748;2022-09-09T04:19:13;101301.61;;;30.97;41.50
64115;BME280;62188;35.640;139.748;2022-09-09T04:21:38;101300.57;;;31.25;41.96
64115;BME280;62188;35.640;139.748;2022-09-09T04:24:03;101302.14;;;30.94;42.11
64115;BME280;62188;35.640;139.748;2022-09-09T04:26:28;101301.58;;;30.81;42.30
64115;BME280;62188;35.640;139.748;2022-09-09T04:28:54;101300.50;;;30.92;42.36
64115;BME280;62188;35.640;139.748;2022-09-09T04:31:21;101297.17;;;30.53;42.67
64115;BME280;62188;35.640;139.748;2022-09-09T04:33:45;101294.31;;;30.47;42.58
64115;BME280;62188;35.640;139.748;2022-09-09T04:36:10;101292.05;;;30.45;42.67
64115;BME280;62188;35.640;139.748;2022-09-09T04:38:35;101291.29;;;30.47;42.59
64115;BME280;62188;35.640;139.748;2022-09-09T04:41:00;101291.08;;;30.71;42.55
64115;BME280;62188;35.640;139.748;2022-09-09T04:43:26;101290.72;;;30.67;42.73
64115;BME280;62188;35.640;139.748;2022-09-09T04:45:52;101289.07;;;30.65;42.82
64115;BME280;62188;35.640;139.748;2022-09-09T04:48:17;101284.83;;;30.33;42.81
64115;BME280;62188;35.640;139.748;2022-09-09T04:50:42;101285.20;;;30.65;42.81
64115;BME280;62188;35.640;139.748;2022-09-09T04:53:08;101282.25;;;30.40;42.86
64115;BME280;62188;35.640;139.748;2022-09-09T04:55:33;101278.82;;;30.39;42.86
64115;BME280;62188;35.640;139.748;2022-09-09T04:57:57;101273.23;;;30.04;43.22
64115;BME280;62188;35.640;139.748;2022-09-09T05:00:23;101268.75;;;30.22;43.39
64115;BME280;62188;35.640;139.748;2022-09-09T05:02:49;101271.86;;;30.45;43.34
64115;BME280;62188;35.640;139.748;2022-09-09T05:05:14;101269.10;;;30.47;43.28
64115;BME280;62188;35.640;139.748;2022-09-09T05:07:39;101268.18;;;30.15;43.20
64115;BME280;62188;35.640;139.748;2022-09-09T05:10:05;101265.08;;;30.14;43.14
64115;BME280;62188;35.640;139.748;2022-09-09T05:12:29;101261.43;;;30.07;43.24
64115;BME280;62188;35.640;139.748;2022-09-09T05:14:55;101259.02;;;30.52;43.26
64115;BME280;62188;35.640;139.748;2022-09-09T05:17:20;101257.15;;;30.23;43.53
64115;BME280;62188;35.640;139.748;2022-09-09T05:19:45;101254.26;;;30.30;43.69
64115;BME280;62188;35.640;139.748;2022-09-09T05:22:11;101252.70;;;29.97;43.19
64115;BME280;62188;35.640;139.748;2022-09-09T05:24:36;101252.68;;;30.23;43.27
64115;BME280;62188;35.640;139.748;2022-09-09T05:27:02;101248.58;;;30.16;43.37
64115;BME280;62188;35.640;139.748;2022-09-09T05:29:27;101244.22;;;30.02;43.24
64115;BME280;62188;35.640;139.748;2022-09-09T05:31:52;101238.57;;;30.08;43.42
64115;BME280;62188;35.640;139.748;2022-09-09T05:34:17;101237.98;;;30.35;42.86
64115;BME280;62188;35.640;139.748;2022-09-09T05:36:43;101237.29;;;30.40;42.63
64115;BME280;62188;35.640;139.748;2022-09-09T05:39:07;101235.83;;;30.39;42.72
64115;BME280;62188;35.640;139.748;2022-09-09T05:41:33;101239.71;;;30.32;42.72
64115;BME280;62188;35.640;139.748;2022-09-09T05:43:58;101236.86;;;30.32;42.78
64115;BME280;62188;35.640;139.748;2022-09-09T05:46:25;101231.96;;;30.07;42.67
64115;BME280;62188;35.640;139.748;2022-09-09T05:48:51;101229.83;;;30.09;42.71
64115;BME280;62188;35.640;139.748;2022-09-09T05:51:16;101227.18;;;30.35;42.81
64115;BME280;62188;35.640;139.748;2022-09-09T05:53:40;101224.46;;;30.38;42.38
64115;BME280;62188;35.640;139.748;2022-09-09T05:56:08;101223.73;;;30.43;42.19
64115;BME280;62188;35.640;139.748;2022-09-09T05:58:30;101225.24;;;30.21;42.20
64115;BME280;62188;35.640;139.748;2022-09-09T06:01:01;101228.70;;;30.23;42.54
64115;BME280;62188;35.640;139.748;2022-09-09T06:03:21;101227.10;;;30.44;42.25
64115;BME280;62188;35.640;139.748;2022-09-09T06:05:46;101228.05;;;30.41;42.35
64115;BME280;62188;35.640;139.748;2022-09-09T06:08:12;101227.98;;;30.46;42.25
64115;BME280;62188;35.640;139.748;2022-09-09T06:10:37;101227.15;;;30.50;42.09
64115;BME280;62188;35.640;139.748;2022-09-09T06:13:02;101225.22;;;30.52;42.24
64115;BME280;62188;35.640;139.748;2022-09-09T06:15:28;101226.29;;;30.54;42.35
64115;BME280;62188;35.640;139.748;2022-09-09T06:17:56;101227.13;;;30.56;42.12
64115;BME280;62188;35.640;139.748;2022-09-09T06:20:18;101232.15;;;30.58;42.12
64115;BME280;62188;35.640;139.748;2022-09-09T06:22:44;101231.90;;;30.13;42.00
64115;BME280;62188;35.640;139.748;2022-09-09T06:25:10;101228.96;;;30.67;41.86
64115;BME280;62188;35.640;139.748;2022-09-09T06:27:34;101227.95;;;30.65;41.73
64115;BME280;62188;35.640;139.748;2022-09-09T06:29:59;101224.05;;;30.50;41.71
64115;BME280;62188;35.640;139.748;2022-09-09T06:32:25;101224.76;;;30.36;41.75
64115;BME280;62188;35.640;139.748;2022-09-09T06:34:50;101224.70;;;30.79;41.34
64115;BME280;62188;35.640;139.748;2022-09-09T06:37:15;101223.41;;;30.27;41.57
64115;BME280;62188;35.640;139.748;2022-09-09T06:39:41;101221.29;;;30.75;41.83
64115;BME280;62188;35.640;139.748;2022-09-09T06:42:06;101222.02;;;30.23;41.89
64115;BME280;62188;35.640;139.748;2022-09-09T06:44:31;101224.91;;;30.50;41.77
64115;BME280;62188;35.640;139.748;2022-09-09T06:46:57;101223.54;;;30.53;41.73
64115;BME280;62188;35.640;139.748;2022-09-09T06:49:22;101222.70;;;30.29;41.73
64115;BME280;62188;35.640;139.748;2022-09-09T06:51:47;101220.06;;;30.50;41.72
64115;BME280;62188;35.640;139.748;2022-09-09T06:54:13;101223.44;;;30.70;41.70
64115;BME280;62188;35.640;139.748;2022-09-09T06:56:39;101228.74;;;30.65;41.61
64115;BME280;62188;35.640;139.748;2022-09-09T06:59:04;101233.81;;;30.67;41.50
64115;BME280;62188;35.640;139.748;2022-09-09T07:01:30;101234.69;;;30.45;41.57
64115;BME280;62188;35.640;139.748;2022-09-09T07:03:56;101235.02;;;30.42;41.40
64115;BME280;62188;35.640;139.748;2022-09-09T07:06:21;101235.21;;;30.62;41.14
64115;BME280;62188;35.640;139.748;2022-09-09T07:08:47;101239.58;;;30.62;41.31
64115;BME280;62188;35.640;139.748;2022-09-09T07:11:10;101241.25;;;30.51;41.49
64115;BME280;62188;35.640;139.748;2022-09-09T07:13:36;101241.40;;;30.27;41.62
64115;BME280;62188;35.640;139.748;2022-09-09T07:16:05;101242.98;;;30.23;41.66
64115;BME280;62188;35.640;139.748;2022-09-09T07:18:26;101243.63;;;30.47;41.60
64115;BME280;62188;35.640;139.748;2022-09-09T07:20:56;101251.69;;;30.15;41.51
64115;BME280;62188;35.640;139.748;2022-09-09T07:23:17;101257.33;;;30.37;41.88
64115;BME280;62188;35.640;139.748;2022-09-09T07:25:46;101260.54;;;30.21;41.86
64115;BME280;62188;35.640;139.748;2022-09-09T07:28:07;101257.08;;;30.47;42.10
64115;BME280;62188;35.640;139.748;2022-09-09T07:30:33;101253.62;;;30.49;42.18
64115;BME280;62188;35.640;139.748;2022-09-09T07:32:58;101252.92;;;29.98;42.68
64115;BME280;62188;35.640;139.748;2022-09-09T07:35:23;101256.24;;;30.15;43.22
64115;BME280;62188;35.640;139.748;2022-09-09T07:37:48;101257.42;;;30.32;43.47
64115;BME280;62188;35.640;139.748;2022-09-09T07:40:14;101260.32;;;30.34;43.47
64115;BME280;62188;35.640;139.748;2022-09-09T07:42:39;101262.07;;;30.33;43.90
64115;BME280;62188;35.640;139.748;2022-09-09T07:45:06;101262.73;;;30.31;44.13
64115;BME280;62188;35.640;139.748;2022-09-09T07:47:30;101262.40;;;29.98;44.15
64115;BME280;62188;35.640;139.748;2022-09-09T07:49:55;101261.62;;;30.15;44.78
64115;BME280;62188;35.640;139.748;2022-09-09T07:52:20;101267.01;;;30.08;44.78
64115;BME280;62188;35.640;139.748;2022-09-09T07:54:46;101269.83;;;30.08;44.65
64115;BME280;62188;35.640;139.748;2022-09-09T07:57:11;101269.77;;;30.04;44.71
64115;BME280;62188;35.640;139.748;2022-09-09T07:59:37;101267.20;;;30.01;44.70
64115;BME280;62188;35.640;139.748;2022-09-09T08:02:02;101264.67;;;29.96;44.67
64115;BME280;62188;35.640;139.748;2022-09-09T08:04:27;101263.21;;;29.96;44.79
64115;BME280;62188;35.640;139.748;2022-09-09T08:06:55;101268.99;;;30.23;44.74
64115;BME280;62188;35.640;139.748;2022-09-09T08:09:18;101269.87;;;30.00;44.93
64115;BME280;62188;35.640;139.748;2022-09-09T08:11:44;101277.73;;;29.96;44.59
64115;BME280;62188;35.640;139.748;2022-09-09T08:14:10;101280.11;;;29.80;44.77
64115;BME280;62188;35.640;139.748;2022-09-09T08:16:35;101281.90;;;29.77;44.88
64115;BME280;62188;35.640;139.748;2022-09-09T08:19:00;101283.86;;;29.79;44.86
64115;BME280;62188;35.640;139.748;2022-09-09T08:21:26;101288.73;;;29.82;44.83
64115;BME280;62188;35.640;139.748;2022-09-09T08:23:51;101287.03;;;29.86;44.89
64115;BME280;62188;35.640;139.748;2022-09-09T08:26:17;101285.41;;;30.11;44.88
64115;BME280;62188;35.640;139.748;2022-09-09T08:28:41;101280.60;;;30.09;45.03
64115;BME280;62188;35.640;139.748;2022-09-09T08:31:09;101280.42;;;29.80;45.03
64115;BME280;62188;35.640;139.748;2022-09-09T08:33:31;101282.75;;;29.69;45.14
64115;BME280;62188;35.640;139.748;2022-09-09T08:35:56;101285.58;;;29.66;45.24
64115;BME280;62188;35.640;139.748;2022-09-09T08:38:22;101288.35;;;29.68;45.22
64115;BME280;62188;35.640;139.748;2022-09-09T08:40:47;101287.65;;;29.63;45.60
64115;BME280;62188;35.640;139.748;2022-09-09T08:43:12;101289.06;;;29.65;45.73
64115;BME280;62188;35.640;139.748;2022-09-09T08:45:46;101291.00;;;29.61;46.08
64115;BME280;62188;35.640;139.748;2022-09-09T08:48:15;101291.57;;;29.80;46.10
64115;BME280;62188;35.640;139.748;2022-09-09T08:50:31;101291.60;;;30.00;46.18
64115;BME280;62188;35.640;139.748;2022-09-09T08:52:59;101295.60;;;29.76;46.39
64115;BME280;62188;35.640;139.748;2022-09-09T08:55:26;101297.30;;;29.98;46.62
64115;BME280;62188;35.640;139.748;2022-09-09T08:57:45;101299.29;;;29.47;46.80
64115;BME280;62188;35.640;139.748;2022-09-09T09:02:42;101309.05;;;29.54;46.71
64115;BME280;62188;35.640;139.748;2022-09-09T09:05:11;101311.02;;;29.55;46.59
64115;BME280;62188;35.640;139.748;2022-09-09T09:07:36;101313.48;;;30.07;46.63
64115;BME280;62188;35.640;139.748;2022-09-09T09:09:59;101318.61;;;29.62;46.94
64115;BME280;62188;35.640;139.748;2022-09-09T09:12:20;101320.26;;;29.68;46.63
64115;BME280;62188;35.640;139.748;2022-09-09T09:14:44;101323.19;;;29.71;46.42
64115;BME280;62188;35.640;139.748;2022-09-09T09:17:11;101321.33;;;29.73;46.37
64115;BME280;62188;35.640;139.748;2022-09-09T09:19:35;101328.52;;;29.99;46.25
64115;BME280;62188;35.640;139.748;2022-09-09T09:22:02;101332.12;;;29.75;46.10
64115;BME280;62188;35.640;139.748;2022-09-09T09:24:29;101334.08;;;29.76;45.93
64115;BME280;62188;35.640;139.748;2022-09-09T09:26:48;101336.84;;;29.72;45.80
64115;BME280;62188;35.640;139.748;2022-09-09T09:29:16;101339.05;;;29.94;45.80
64115;BME280;62188;35.640;139.748;2022-09-09T09:31:39;101347.61;;;29.70;45.84
64115;BME280;62188;35.640;139.748;2022-09-09T09:34:04;101354.84;;;29.64;45.89
64115;BME280;62188;35.640;139.748;2022-09-09T09:36:42;101358.04;;;29.62;45.92
64115;BME280;62188;35.640;139.748;2022-09-09T09:38:58;101358.99;;;29.64;45.81
64115;BME280;62188;35.640;139.748;2022-09-09T09:41:30;101362.29;;;29.69;45.76
64115;BME280;62188;35.640;139.748;2022-09-09T09:43:53;101366.68;;;29.72;45.73
64115;BME280;62188;35.640;139.748;2022-09-09T09:46:19;101368.30;;;29.76;45.66
64115;BME280;62188;35.640;139.748;2022-09-09T09:48:37;101369.25;;;29.78;45.43
64115;BME280;62188;35.640;139.748;2022-09-09T09:51:05;101375.26;;;29.78;45.22
64115;BME280;62188;35.640;139.748;2022-09-09T09:53:27;101380.27;;;29.75;45.14
64115;BME280;62188;35.640;139.748;2022-09-09T09:55:56;101382.71;;;29.75;44.79
64115;BME280;62188;35.640;139.748;2022-09-09T09:58:17;101385.41;;;29.75;44.65
64115;BME280;62188;35.640;139.748;2022-09-09T10:00:48;101387.58;;;29.93;44.85
64115;BME280;62188;35.640;139.748;2022-09-09T10:03:17;101384.81;;;29.66;45.21
64115;BME280;62188;35.640;139.748;2022-09-09T10:05:37;101382.21;;;29.55;45.61
64115;BME280;62188;35.640;139.748;2022-09-09T10:08:05;101380.34;;;29.77;45.37
64115;BME280;62188;35.640;139.748;2022-09-09T10:10:30;101392.13;;;29.35;44.60
64115;BME280;62188;35.640;139.748;2022-09-09T10:12:57;101397.26;;;29.28;44.07
64115;BME280;62188;35.640;139.748;2022-09-09T10:15:26;101403.69;;;29.45;44.17
64115;BME280;62188;35.640;139.748;2022-09-09T10:17:47;101405.54;;;29.71;44.06
64115;BME280;62188;35.640;139.748;2022-09-09T10:20:17;101409.59;;;29.43;44.11
64115;BME280;62188;35.640;139.748;2022-09-09T10:22:34;101409.37;;;29.41;44.23
64115;BME280;62188;35.640;139.748;2022-09-09T10:25:05;101416.66;;;29.39;44.17
64115;BME280;62188;35.640;139.748;2022-09-09T10:27:27;101421.32;;;29.64;44.00
64115;BME280;62188;35.640;139.748;2022-09-09T10:34:52;101439.25;;;29.55;43.84
64115;BME280;62188;35.640;139.748;2022-09-09T10:37:07;101441.35;;;29.53;43.81
64115;BME280;62188;35.640;139.748;2022-09-09T10:39:35;101440.93;;;29.23;43.61
64115;BME280;62188;35.640;139.748;2022-09-09T10:41:58;101441.66;;;29.20;43.65
64115;BME280;62188;35.640;139.748;2022-09-09T10:44:30;101449.50;;;29.24;43.52
64115;BME280;62188;35.640;139.748;2022-09-09T10:46:55;101454.09;;;29.19;43.30
64115;BME280;62188;35.640;139.748;2022-09-09T10:49:18;101462.76;;;29.39;43.41
64115;BME280;62188;35.640;139.748;2022-09-09T10:51:42;101460.82;;;28.98;43.37
64115;BME280;62188;35.640;139.748;2022-09-09T10:54:14;101457.96;;;29.28;43.75
64115;BME280;62188;35.640;139.748;2022-09-09T10:56:27;101459.31;;;28.93;43.66
64115;BME280;62188;35.640;139.748;2022-09-09T10:58:54;101460.95;;;29.22;43.99
64115;BME280;62188;35.640;139.748;2022-09-09T11:01:21;101463.51;;;28.65;43.92
64115;BME280;62188;35.640;139.748;2022-09-09T11:03:42;101463.68;;;28.92;43.99
64115;BME280;62188;35.640;139.748;2022-09-09T11:06:16;101462.45;;;29.23;44.17
64115;BME280;62188;35.640;139.748;2022-09-09T11:08:35;101464.73;;;28.73;44.20
64115;BME280;62188;35.640;139.748;2022-09-09T11:11:02;101470.57;;;29.02;44.39
64115;BME280;62188;35.640;139.748;2022-09-09T11:13:26;101475.07;;;28.80;44.72
64115;BME280;62188;35.640;139.748;2022-09-09T11:15:52;101474.26;;;28.92;44.20
64115;BME280;62188;35.640;139.748;2022-09-09T11:18:19;101475.40;;;29.07;44.49
64115;BME280;62188;35.640;139.748;2022-09-09T11:20:39;101479.02;;;29.03;44.49
64115;BME280;62188;35.640;139.748;2022-09-09T11:23:08;101479.26;;;28.87;44.52
64115;BME280;62188;35.640;139.748;2022-09-09T11:25:34;101479.34;;;28.79;44.55
64115;BME280;62188;35.640;139.748;2022-09-09T11:28:16;101482.32;;;28.92;44.61
64115;BME280;62188;35.640;139.748;2022-09-09T11:30:22;101482.91;;;28.96;44.36
64115;BME280;62188;35.640;139.748;2022-09-09T11:35:23;101488.63;;;28.87;44.57
64115;BME280;62188;35.640;139.748;2022-09-09T11:37:49;101484.91;;;28.71;44.90
64115;BME280;62188;35.640;139.748;2022-09-09T11:42:27;101473.44;;;28.92;44.99
64115;BME280;62188;35.640;139.748;2022-09-09T11:44:52;101473.78;;;28.67;45.07
64115;BME280;62188;35.640;139.748;2022-09-09T11:47:23;101480.13;;;28.85;44.91
64115;BME280;62188;35.640;139.748;2022-09-09T11:49:44;101485.46;;;28.88;44.99
64115;BME280;62188;35.640;139.748;2022-09-09T11:52:19;101493.70;;;28.65;44.76
64115;BME280;62188;35.640;139.748;2022-09-09T11:54:36;101491.61;;;28.89;44.96
64115;BME280;62188;35.640;139.748;2022-09-09T11:56:59;101485.00;;;28.88;44.82
64115;BME280;62188;35.640;139.748;2022-09-09T11:59:26;101483.04;;;28.85;44.73
64115;BME280;62188;35.640;139.748;2022-09-09T12:01:54;101480.88;;;28.91;44.76
64115;BME280;62188;35.640;139.748;2022-09-09T12:04:18;101477.10;;;28.90;44.87
64115;BME280;62188;35.640;139.748;2022-09-09T12:06:44;101474.75;;;28.81;45.07
64115;BME280;62188;35.640;139.748;2022-09-09T12:09:12;101476.50;;;28.58;44.96
64115;BME280;62188;35.640;139.748;2022-09-09T12:11:31;101472.61;;;28.80;44.87
64115;BME280;62188;35.640;139.748;2022-09-09T12:13:57;101472.60;;;28.80;44.92
64115;BME280;62188;35.640;139.748;2022-09-09T12:16:28;101467.12;;;28.84;44.92
64115;BME280;62188;35.640;139.748;2022-09-09T12:18:47;101461.91;;;28.82;44.99
64115;BME280;62188;35.640;139.748;2022-09-09T12:21:18;101457.57;;;28.74;44.98
64115;BME280;62188;35.640;139.748;2022-09-09T12:23:43;101457.05;;;28.76;45.08
64115;BME280;62188;35.640;139.748;2022-09-09T12:30:58;101459.06;;;28.76;45.04
64115;BME280;62188;35.640;139.748;2022-09-09T12:33:19;101458.16;;;28.93;45.13
64115;BME280;62188;35.640;139.748;2022-09-09T12:35:45;101457.66;;;28.64;45.17
64115;BME280;62188;35.640;139.748;2022-09-09T12:38:14;101452.97;;;28.64;45.24
64115;BME280;62188;35.640;139.748;2022-09-09T12:40:35;101450.33;;;28.41;45.27
64115;BME280;62188;35.640;139.748;2022-09-09T12:43:01;101449.71;;;28.66;45.29
64115;BME280;62188;35.640;139.748;2022-09-09T12:45:27;101455.89;;;28.43;45.29